sensor_id;sensor_type;location;lat;lon;timestamp;P1;durP1;ratioP1;P2;durP2;ratioP2
20318;SDS011;10317;47.254;11.314;2022-12-18T00:01:02;27.17;;;14.60;;
20318;SDS011;10317;47.254;11.314;2022-12-18T00:03:33;25.57;;;14.03;;
20318;SDS011;10317;47.254;11.314;2022-12-18T00:06:00;28.60;;;13.83;;
20318;SDS011;10317;47.254;11.314;2022-12-18T00:08:27;25.90;;;13.90;;
20318;SDS011;10317;47.254;11.314;2022-12-18T00:10:53;25.73;;;14.07;;
20318;SDS011;10317;47.254;11.314;2022-12-18T00:13:19;26.50;;;13.83;;
20318;SDS011;10317;47.254;11.314;2022-12-18T00:15:45;24.53;;;14.03;;
20318;SDS011;10317;47.254;11.314;2022-12-18T00:18:11;29.43;;;15.37;;
20318;SDS011;10317;47.254;11.314;2022-12-18T00:20:37;29.13;;;15.87;;
20318;SDS011;10317;47.254;11.314;2022-12-18T00:23:04;28.43;;;14.33;;
20318;SDS011;10317;47.254;11.314;2022-12-18T00:25:34;27.43;;;14.30;;
20318;SDS011;10317;47.254;11.314;2022-12-18T00:28:01;30.10;;;13.87;;
20318;SDS011;10317;47.254;11.314;2022-12-18T00:30:29;30.30;;;14.97;;
20318;SDS011;10317;47.254;11.314;2022-12-18T00:32:57;28.57;;;14.47;;
20318;SDS011;10317;47.254;11.314;2022-12-18T00:35:22;27.20;;;14.10;;
20318;SDS011;10317;47.254;11.314;2022-12-18T00:37:48;27.10;;;14.23;;
20318;SDS011;10317;47.254;11.314;2022-12-18T00:40:14;25.63;;;14.27;;
20318;SDS011;10317;47.254;11.314;2022-12-18T00:42:40;26.40;;;13.93;;
20318;SDS011;10317;47.254;11.314;2022-12-18T00:45:25;28.07;;;15.07;;
20318;SDS011;10317;47.254;11.314;2022-12-18T00:47:52;24.23;;;13.27;;
20318;SDS011;10317;47.254;11.314;2022-12-18T00:50:19;26.73;;;13.67;;
20318;SDS011;10317;47.254;11.314;2022-12-18T00:52:45;24.50;;;14.03;;
20318;SDS011;10317;47.254;11.314;2022-12-18T00:55:11;24.83;;;14.60;;
20318;SDS011;10317;47.254;11.314;2022-12-18T00:57:37;24.27;;;14.30;;
20318;SDS011;10317;47.254;11.314;2022-12-18T01:00:04;24.57;;;14.00;;
20318;SDS011;10317;47.254;11.314;2022-12-18T01:02:31;23.87;;;13.07;;
20318;SDS011;10317;47.254;11.314;2022-12-18T01:04:57;25.70;;;13.80;;
20318;SDS011;10317;47.254;11.314;2022-12-18T01:07:22;24.33;;;14.07;;
20318;SDS011;10317;47.254;11.314;2022-12-18T01:09:48;26.17;;;14.20;;
20318;SDS011;10317;47.254;11.314;2022-12-18T01:12:14;25.73;;;13.70;;
20318;SDS011;10317;47.254;11.314;2022-12-18T01:14:39;23.97;;;13.33;;
20318;SDS011;10317;47.254;11.314;2022-12-18T01:17:05;23.20;;;13.33;;
20318;SDS011;10317;47.254;11.314;2022-12-18T01:19:31;24.40;;;13.87;;
20318;SDS011;10317;47.254;11.314;2022-12-18T01:21:57;22.87;;;13.03;;
20318;SDS011;10317;47.254;11.314;2022-12-18T01:24:23;26.37;;;15.03;;
20318;SDS011;10317;47.254;11.314;2022-12-18T01:26:49;28.47;;;15.30;;
20318;SDS011;10317;47.254;11.314;2022-12-18T01:29:14;28.90;;;14.23;;
20318;SDS011;10317;47.254;11.314;2022-12-18T01:31:40;25.60;;;13.33;;
20318;SDS011;10317;47.254;11.314;2022-12-18T01:34:06;24.87;;;12.73;;
20318;SDS011;10317;47.254;11.314;2022-12-18T01:36:32;26.13;;;13.20;;
20318;SDS011;10317;47.254;11.314;2022-12-18T01:39:00;24.03;;;13.03;;
20318;SDS011;10317;47.254;11.314;2022-12-18T01:41:28;31.10;;;14.93;;
20318;SDS011;10317;47.254;11.314;2022-12-18T01:47:21;29.77;;;14.00;;
20318;SDS011;10317;47.254;11.314;2022-12-18T01:49:48;21.50;;;11.90;;
20318;SDS011;10317;47.254;11.314;2022-12-18T01:52:14;25.43;;;12.90;;
20318;SDS011;10317;47.254;11.314;2022-12-18T01:54:41;23.43;;;12.67;;
20318;SDS011;10317;47.254;11.314;2022-12-18T01:57:07;20.70;;;12.13;;
20318;SDS011;10317;47.254;11.314;2022-12-18T01:59:33;23.13;;;12.80;;
20318;SDS011;10317;47.254;11.314;2022-12-18T02:02:00;22.57;;;12.63;;
20318;SDS011;10317;47.254;11.314;2022-12-18T02:04:27;23.43;;;13.17;;
20318;SDS011;10317;47.254;11.314;2022-12-18T02:07:40;22.73;;;11.83;;
20318;SDS011;10317;47.254;11.314;2022-12-18T02:09:59;23.77;;;12.13;;
20318;SDS011;10317;47.254;11.314;2022-12-18T02:12:43;21.40;;;11.90;;
20318;SDS011;10317;47.254;11.314;2022-12-18T02:15:17;22.47;;;11.93;;
20318;SDS011;10317;47.254;11.314;2022-12-18T02:18:02;25.40;;;12.50;;
20318;SDS011;10317;47.254;11.314;2022-12-18T02:20:47;21.60;;;11.97;;
20318;SDS011;10317;47.254;11.314;2022-12-18T02:28:41;24.73;;;11.83;;
20318;SDS011;10317;47.254;11.314;2022-12-18T02:31:11;24.43;;;12.10;;
20318;SDS011;10317;47.254;11.314;2022-12-18T02:33:41;21.57;;;11.03;;
20318;SDS011;10317;47.254;11.314;2022-12-18T02:36:10;25.07;;;13.23;;
20318;SDS011;10317;47.254;11.314;2022-12-18T02:38:37;21.53;;;11.50;;
20318;SDS011;10317;47.254;11.314;2022-12-18T02:41:05;20.63;;;11.67;;
20318;SDS011;10317;47.254;11.314;2022-12-18T02:43:31;21.87;;;11.67;;
20318;SDS011;10317;47.254;11.314;2022-12-18T02:45:57;26.47;;;13.17;;
20318;SDS011;10317;47.254;11.314;2022-12-18T02:48:26;24.13;;;12.50;;
20318;SDS011;10317;47.254;11.314;2022-12-18T02:51:03;22.57;;;12.30;;
20318;SDS011;10317;47.254;11.314;2022-12-18T02:53:51;20.37;;;11.50;;
20318;SDS011;10317;47.254;11.314;2022-12-18T02:56:31;21.37;;;11.50;;
20318;SDS011;10317;47.254;11.314;2022-12-18T02:59:09;21.57;;;12.33;;
20318;SDS011;10317;47.254;11.314;2022-12-18T03:01:51;23.20;;;12.60;;
20318;SDS011;10317;47.254;11.314;2022-12-18T03:04:23;21.07;;;11.93;;
20318;SDS011;10317;47.254;11.314;2022-12-18T03:06:56;22.73;;;11.83;;
20318;SDS011;10317;47.254;11.314;2022-12-18T03:09:31;22.60;;;11.90;;
20318;SDS011;10317;47.254;11.314;2022-12-18T03:12:02;19.93;;;11.33;;
20318;SDS011;10317;47.254;11.314;2022-12-18T03:17:35;21.23;;;11.23;;
20318;SDS011;10317;47.254;11.314;2022-12-18T03:20:06;23.20;;;12.77;;
20318;SDS011;10317;47.254;11.314;2022-12-18T03:22:36;22.20;;;11.13;;
20318;SDS011;10317;47.254;11.314;2022-12-18T03:25:04;20.57;;;11.00;;
20318;SDS011;10317;47.254;11.314;2022-12-18T03:27:33;21.73;;;10.27;;
20318;SDS011;10317;47.254;11.314;2022-12-18T03:30:04;23.13;;;11.90;;
20318;SDS011;10317;47.254;11.314;2022-12-18T03:32:36;19.60;;;10.67;;
20318;SDS011;10317;47.254;11.314;2022-12-18T03:35:19;24.63;;;11.50;;
20318;SDS011;10317;47.254;11.314;2022-12-18T03:37:47;25.07;;;12.23;;
20318;SDS011;10317;47.254;11.314;2022-12-18T03:40:13;20.20;;;10.83;;
20318;SDS011;10317;47.254;11.314;2022-12-18T03:42:49;20.37;;;9.87;;
20318;SDS011;10317;47.254;11.314;2022-12-18T03:45:23;41.87;;;22.03;;
20318;SDS011;10317;47.254;11.314;2022-12-18T03:48:00;23.53;;;12.00;;
20318;SDS011;10317;47.254;11.314;2022-12-18T03:50:49;21.47;;;11.70;;
20318;SDS011;10317;47.254;11.314;2022-12-18T03:56:05;20.80;;;11.47;;
20318;SDS011;10317;47.254;11.314;2022-12-18T03:58:33;17.80;;;10.83;;
20318;SDS011;10317;47.254;11.314;2022-12-18T04:01:03;20.03;;;10.47;;
20318;SDS011;10317;47.254;11.314;2022-12-18T04:03:33;16.70;;;9.33;;
20318;SDS011;10317;47.254;11.314;2022-12-18T04:06:00;19.17;;;10.27;;
20318;SDS011;10317;47.254;11.314;2022-12-18T04:08:27;20.23;;;9.70;;
20318;SDS011;10317;47.254;11.314;2022-12-18T04:10:54;21.00;;;8.93;;
20318;SDS011;10317;47.254;11.314;2022-12-18T04:13:30;21.07;;;10.07;;
20318;SDS011;10317;47.254;11.314;2022-12-18T04:15:59;22.63;;;10.73;;
20318;SDS011;10317;47.254;11.314;2022-12-18T04:18:25;19.87;;;10.70;;
20318;SDS011;10317;47.254;11.314;2022-12-18T04:20:50;17.10;;;9.97;;
20318;SDS011;10317;47.254;11.314;2022-12-18T04:23:16;17.77;;;10.03;;
20318;SDS011;10317;47.254;11.314;2022-12-18T04:25:42;21.67;;;10.33;;
20318;SDS011;10317;47.254;11.314;2022-12-18T04:28:07;19.37;;;10.70;;
20318;SDS011;10317;47.254;11.314;2022-12-18T04:30:33;18.73;;;10.23;;
20318;SDS011;10317;47.254;11.314;2022-12-18T04:32:59;17.43;;;9.37;;
20318;SDS011;10317;47.254;11.314;2022-12-18T04:35:24;19.17;;;9.90;;
20318;SDS011;10317;47.254;11.314;2022-12-18T04:37:50;16.07;;;9.07;;
20318;SDS011;10317;47.254;11.314;2022-12-18T04:40:16;16.73;;;8.93;;
20318;SDS011;10317;47.254;11.314;2022-12-18T04:42:42;17.20;;;9.37;;
20318;SDS011;10317;47.254;11.314;2022-12-18T04:45:07;16.97;;;9.53;;
20318;SDS011;10317;47.254;11.314;2022-12-18T04:47:33;20.83;;;10.37;;
20318;SDS011;10317;47.254;11.314;2022-12-18T04:49:59;15.50;;;9.67;;
20318;SDS011;10317;47.254;11.314;2022-12-18T04:52:25;19.33;;;10.03;;
20318;SDS011;10317;47.254;11.314;2022-12-18T04:54:50;17.40;;;10.20;;
20318;SDS011;10317;47.254;11.314;2022-12-18T04:57:16;16.17;;;9.87;;
20318;SDS011;10317;47.254;11.314;2022-12-18T04:59:43;17.07;;;10.07;;
20318;SDS011;10317;47.254;11.314;2022-12-18T05:02:09;20.53;;;10.00;;
20318;SDS011;10317;47.254;11.314;2022-12-18T05:04:34;18.90;;;9.97;;
20318;SDS011;10317;47.254;11.314;2022-12-18T05:07:00;19.67;;;9.40;;
20318;SDS011;10317;47.254;11.314;2022-12-18T05:09:26;18.83;;;10.17;;
20318;SDS011;10317;47.254;11.314;2022-12-18T05:11:51;19.93;;;10.03;;
20318;SDS011;10317;47.254;11.314;2022-12-18T05:14:17;17.60;;;10.43;;
20318;SDS011;10317;47.254;11.314;2022-12-18T05:16:43;19.30;;;9.40;;
20318;SDS011;10317;47.254;11.314;2022-12-18T05:19:08;21.63;;;11.10;;
20318;SDS011;10317;47.254;11.314;2022-12-18T05:21:34;17.67;;;9.03;;
20318;SDS011;10317;47.254;11.314;2022-12-18T05:24:00;16.97;;;9.53;;
20318;SDS011;10317;47.254;11.314;2022-12-18T05:26:25;23.10;;;10.23;;
20318;SDS011;10317;47.254;11.314;2022-12-18T05:28:51;22.27;;;9.77;;
20318;SDS011;10317;47.254;11.314;2022-12-18T05:31:17;23.47;;;9.97;;
20318;SDS011;10317;47.254;11.314;2022-12-18T05:33:42;16.90;;;9.83;;
20318;SDS011;10317;47.254;11.314;2022-12-18T05:36:09;21.63;;;9.77;;
20318;SDS011;10317;47.254;11.314;2022-12-18T05:38:35;19.00;;;10.03;;
20318;SDS011;10317;47.254;11.314;2022-12-18T05:41:03;19.83;;;9.90;;
20318;SDS011;10317;47.254;11.314;2022-12-18T05:43:29;19.50;;;10.10;;
20318;SDS011;10317;47.254;11.314;2022-12-18T05:45:55;18.77;;;9.67;;
20318;SDS011;10317;47.254;11.314;2022-12-18T05:48:21;25.50;;;10.73;;
20318;SDS011;10317;47.254;11.314;2022-12-18T05:50:48;22.03;;;10.90;;
20318;SDS011;10317;47.254;11.314;2022-12-18T05:53:16;25.40;;;10.63;;
20318;SDS011;10317;47.254;11.314;2022-12-18T05:55:43;23.70;;;10.33;;
20318;SDS011;10317;47.254;11.314;2022-12-18T05:58:09;21.37;;;10.03;;
20318;SDS011;10317;47.254;11.314;2022-12-18T06:00:37;21.10;;;10.57;;
20318;SDS011;10317;47.254;11.314;2022-12-18T06:03:05;17.30;;;9.40;;
20318;SDS011;10317;47.254;11.314;2022-12-18T06:05:39;19.93;;;10.20;;
20318;SDS011;10317;47.254;11.314;2022-12-18T06:08:07;22.57;;;10.40;;
20318;SDS011;10317;47.254;11.314;2022-12-18T06:10:33;20.47;;;10.20;;
20318;SDS011;10317;47.254;11.314;2022-12-18T06:12:58;20.07;;;9.63;;
20318;SDS011;10317;47.254;11.314;2022-12-18T06:15:24;17.93;;;9.97;;
20318;SDS011;10317;47.254;11.314;2022-12-18T06:17:50;18.03;;;9.13;;
20318;SDS011;10317;47.254;11.314;2022-12-18T06:20:16;19.07;;;9.50;;
20318;SDS011;10317;47.254;11.314;2022-12-18T06:22:42;18.33;;;10.70;;
20318;SDS011;10317;47.254;11.314;2022-12-18T06:25:08;18.20;;;9.97;;
20318;SDS011;10317;47.254;11.314;2022-12-18T06:27:34;19.17;;;10.43;;
20318;SDS011;10317;47.254;11.314;2022-12-18T06:29:59;17.47;;;9.33;;
20318;SDS011;10317;47.254;11.314;2022-12-18T06:32:26;17.40;;;10.53;;
20318;SDS011;10317;47.254;11.314;2022-12-18T06:34:52;17.07;;;9.20;;
20318;SDS011;10317;47.254;11.314;2022-12-18T06:37:18;17.20;;;9.70;;
20318;SDS011;10317;47.254;11.314;2022-12-18T06:39:44;17.87;;;9.10;;
20318;SDS011;10317;47.254;11.314;2022-12-18T06:42:10;20.03;;;10.57;;
20318;SDS011;10317;47.254;11.314;2022-12-18T06:44:36;16.77;;;9.40;;
20318;SDS011;10317;47.254;11.314;2022-12-18T06:47:01;14.13;;;8.33;;
20318;SDS011;10317;47.254;11.314;2022-12-18T06:49:27;16.70;;;9.67;;
20318;SDS011;10317;47.254;11.314;2022-12-18T06:51:53;18.53;;;10.00;;
20318;SDS011;10317;47.254;11.314;2022-12-18T06:54:19;18.17;;;8.53;;
20318;SDS011;10317;47.254;11.314;2022-12-18T06:56:45;12.80;;;8.27;;
20318;SDS011;10317;47.254;11.314;2022-12-18T06:59:12;16.80;;;8.47;;
20318;SDS011;10317;47.254;11.314;2022-12-18T07:01:39;16.07;;;8.87;;
20318;SDS011;10317;47.254;11.314;2022-12-18T07:04:07;15.70;;;8.97;;
20318;SDS011;10317;47.254;11.314;2022-12-18T07:06:33;16.60;;;9.40;;
20318;SDS011;10317;47.254;11.314;2022-12-18T07:08:59;16.70;;;8.50;;
20318;SDS011;10317;47.254;11.314;2022-12-18T07:11:24;16.90;;;9.10;;
20318;SDS011;10317;47.254;11.314;2022-12-18T07:13:51;16.87;;;9.87;;
20318;SDS011;10317;47.254;11.314;2022-12-18T07:16:18;13.80;;;9.07;;
20318;SDS011;10317;47.254;11.314;2022-12-18T07:18:44;21.73;;;9.73;;
20318;SDS011;10317;47.254;11.314;2022-12-18T07:21:11;18.43;;;9.60;;
20318;SDS011;10317;47.254;11.314;2022-12-18T07:23:39;18.27;;;9.27;;
20318;SDS011;10317;47.254;11.314;2022-12-18T07:26:06;17.77;;;9.63;;
20318;SDS011;10317;47.254;11.314;2022-12-18T07:28:36;15.03;;;8.10;;
20318;SDS011;10317;47.254;11.314;2022-12-18T07:31:03;16.83;;;8.80;;
20318;SDS011;10317;47.254;11.314;2022-12-18T07:33:31;13.87;;;8.40;;
20318;SDS011;10317;47.254;11.314;2022-12-18T07:35:58;14.60;;;8.03;;
20318;SDS011;10317;47.254;11.314;2022-12-18T07:38:24;15.37;;;8.60;;
20318;SDS011;10317;47.254;11.314;2022-12-18T07:40:50;14.97;;;8.00;;
20318;SDS011;10317;47.254;11.314;2022-12-18T07:43:16;16.80;;;8.20;;
20318;SDS011;10317;47.254;11.314;2022-12-18T07:45:42;16.57;;;9.40;;
20318;SDS011;10317;47.254;11.314;2022-12-18T07:48:08;15.40;;;8.27;;
20318;SDS011;10317;47.254;11.314;2022-12-18T07:50:34;12.73;;;7.80;;
20318;SDS011;10317;47.254;11.314;2022-12-18T07:53:00;13.00;;;8.70;;
20318;SDS011;10317;47.254;11.314;2022-12-18T07:55:29;17.27;;;8.60;;
20318;SDS011;10317;47.254;11.314;2022-12-18T07:57:55;14.17;;;8.13;;
20318;SDS011;10317;47.254;11.314;2022-12-18T08:00:20;15.67;;;8.33;;
20318;SDS011;10317;47.254;11.314;2022-12-18T08:02:46;18.97;;;8.63;;
20318;SDS011;10317;47.254;11.314;2022-12-18T08:05:12;12.80;;;8.50;;
20318;SDS011;10317;47.254;11.314;2022-12-18T08:07:38;13.17;;;8.33;;
20318;SDS011;10317;47.254;11.314;2022-12-18T08:10:05;16.43;;;8.90;;
20318;SDS011;10317;47.254;11.314;2022-12-18T08:12:31;15.10;;;9.10;;
20318;SDS011;10317;47.254;11.314;2022-12-18T08:14:56;15.80;;;9.00;;
20318;SDS011;10317;47.254;11.314;2022-12-18T08:17:22;14.67;;;8.60;;
20318;SDS011;10317;47.254;11.314;2022-12-18T08:19:48;13.57;;;8.10;;
20318;SDS011;10317;47.254;11.314;2022-12-18T08:22:14;17.27;;;9.23;;
20318;SDS011;10317;47.254;11.314;2022-12-18T08:24:39;14.73;;;8.33;;
20318;SDS011;10317;47.254;11.314;2022-12-18T08:27:05;13.67;;;8.67;;
20318;SDS011;10317;47.254;11.314;2022-12-18T08:29:31;15.47;;;9.10;;
20318;SDS011;10317;47.254;11.314;2022-12-18T08:31:57;17.50;;;9.23;;
20318;SDS011;10317;47.254;11.314;2022-12-18T08:34:22;14.93;;;8.73;;
20318;SDS011;10317;47.254;11.314;2022-12-18T08:36:48;15.03;;;8.33;;
20318;SDS011;10317;47.254;11.314;2022-12-18T08:39:14;16.03;;;9.30;;
20318;SDS011;10317;47.254;11.314;2022-12-18T08:41:40;18.63;;;10.00;;
20318;SDS011;10317;47.254;11.314;2022-12-18T08:44:07;15.60;;;9.93;;
20318;SDS011;10317;47.254;11.314;2022-12-18T08:46:52;18.03;;;10.63;;
20318;SDS011;10317;47.254;11.314;2022-12-18T08:49:19;21.10;;;9.20;;
20318;SDS011;10317;47.254;11.314;2022-12-18T08:51:44;18.30;;;10.03;;
20318;SDS011;10317;47.254;11.314;2022-12-18T08:54:11;16.03;;;9.10;;
20318;SDS011;10317;47.254;11.314;2022-12-18T08:56:38;15.40;;;9.83;;
20318;SDS011;10317;47.254;11.314;2022-12-18T08:59:04;16.67;;;9.37;;
20318;SDS011;10317;47.254;11.314;2022-12-18T09:01:30;14.50;;;9.23;;
20318;SDS011;10317;47.254;11.314;2022-12-18T09:03:55;16.17;;;9.63;;
20318;SDS011;10317;47.254;11.314;2022-12-18T09:06:21;13.20;;;8.80;;
20318;SDS011;10317;47.254;11.314;2022-12-18T09:08:48;13.60;;;9.10;;
20318;SDS011;10317;47.254;11.314;2022-12-18T09:11:25;16.53;;;9.30;;
20318;SDS011;10317;47.254;11.314;2022-12-18T09:13:53;15.87;;;9.33;;
20318;SDS011;10317;47.254;11.314;2022-12-18T09:16:19;15.30;;;9.53;;
20318;SDS011;10317;47.254;11.314;2022-12-18T09:18:47;13.50;;;9.10;;
20318;SDS011;10317;47.254;11.314;2022-12-18T09:21:14;12.73;;;8.37;;
20318;SDS011;10317;47.254;11.314;2022-12-18T09:23:42;12.77;;;8.67;;
20318;SDS011;10317;47.254;11.314;2022-12-18T09:26:09;15.97;;;9.07;;
20318;SDS011;10317;47.254;11.314;2022-12-18T09:28:35;14.90;;;8.93;;
20318;SDS011;10317;47.254;11.314;2022-12-18T09:31:05;14.47;;;9.37;;
20318;SDS011;10317;47.254;11.314;2022-12-18T09:33:32;14.03;;;8.70;;
20318;SDS011;10317;47.254;11.314;2022-12-18T09:36:00;13.40;;;8.50;;
20318;SDS011;10317;47.254;11.314;2022-12-18T09:38:28;15.23;;;9.20;;
20318;SDS011;10317;47.254;11.314;2022-12-18T09:40:56;13.83;;;8.40;;
20318;SDS011;10317;47.254;11.314;2022-12-18T09:43:45;12.33;;;8.07;;
20318;SDS011;10317;47.254;11.314;2022-12-18T09:46:37;12.90;;;8.03;;
20318;SDS011;10317;47.254;11.314;2022-12-18T09:49:04;12.10;;;8.70;;
20318;SDS011;10317;47.254;11.314;2022-12-18T09:51:46;12.57;;;8.07;;
20318;SDS011;10317;47.254;11.314;2022-12-18T09:54:25;12.17;;;7.73;;
20318;SDS011;10317;47.254;11.314;2022-12-18T09:56:56;9.47;;;7.03;;
20318;SDS011;10317;47.254;11.314;2022-12-18T09:59:32;13.50;;;8.30;;
20318;SDS011;10317;47.254;11.314;2022-12-18T10:04:54;17.27;;;6.83;;
20318;SDS011;10317;47.254;11.314;2022-12-18T10:07:28;12.13;;;7.57;;
20318;SDS011;10317;47.254;11.314;2022-12-18T10:12:43;10.17;;;7.03;;
20318;SDS011;10317;47.254;11.314;2022-12-18T10:15:19;10.47;;;7.03;;
20318;SDS011;10317;47.254;11.314;2022-12-18T10:20:47;11.07;;;7.17;;
20318;SDS011;10317;47.254;11.314;2022-12-18T10:26:06;10.30;;;6.27;;
20318;SDS011;10317;47.254;11.314;2022-12-18T10:28:37;9.93;;;6.17;;
20318;SDS011;10317;47.254;11.314;2022-12-18T10:31:11;8.93;;;6.10;;
20318;SDS011;10317;47.254;11.314;2022-12-18T10:33:43;10.70;;;6.27;;
20318;SDS011;10317;47.254;11.314;2022-12-18T10:36:09;8.93;;;6.17;;
20318;SDS011;10317;47.254;11.314;2022-12-18T10:38:35;10.83;;;5.50;;
20318;SDS011;10317;47.254;11.314;2022-12-18T10:43:37;7.80;;;5.40;;
20318;SDS011;10317;47.254;11.314;2022-12-18T10:48:39;7.93;;;4.50;;
20318;SDS011;10317;47.254;11.314;2022-12-18T10:51:16;6.63;;;5.13;;
20318;SDS011;10317;47.254;11.314;2022-12-18T10:53:59;6.00;;;4.40;;
20318;SDS011;10317;47.254;11.314;2022-12-18T10:56:29;4.77;;;3.90;;
20318;SDS011;10317;47.254;11.314;2022-12-18T10:58:57;5.70;;;4.80;;
20318;SDS011;10317;47.254;11.314;2022-12-18T11:01:33;3.90;;;3.60;;
20318;SDS011;10317;47.254;11.314;2022-12-18T11:04:13;6.07;;;3.83;;
20318;SDS011;10317;47.254;11.314;2022-12-18T11:07:00;5.27;;;4.07;;
20318;SDS011;10317;47.254;11.314;2022-12-18T11:09:30;5.83;;;3.93;;
20318;SDS011;10317;47.254;11.314;2022-12-18T11:17:21;4.70;;;3.40;;
20318;SDS011;10317;47.254;11.314;2022-12-18T11:20:03;4.73;;;3.73;;
20318;SDS011;10317;47.254;11.314;2022-12-18T11:22:34;6.80;;;4.13;;
20318;SDS011;10317;47.254;11.314;2022-12-18T11:27:40;4.73;;;3.87;;
20318;SDS011;10317;47.254;11.314;2022-12-18T11:30:26;6.10;;;3.53;;
20318;SDS011;10317;47.254;11.314;2022-12-18T11:35:52;5.47;;;3.37;;
20318;SDS011;10317;47.254;11.314;2022-12-18T11:41:09;4.07;;;3.23;;
20318;SDS011;10317;47.254;11.314;2022-12-18T11:44:10;6.10;;;3.67;;
20318;SDS011;10317;47.254;11.314;2022-12-18T11:46:43;5.20;;;3.43;;
20318;SDS011;10317;47.254;11.314;2022-12-18T11:49:17;4.23;;;3.57;;
20318;SDS011;10317;47.254;11.314;2022-12-18T11:52:09;3.70;;;3.20;;
20318;SDS011;10317;47.254;11.314;2022-12-18T11:54:39;4.07;;;3.30;;
20318;SDS011;10317;47.254;11.314;2022-12-18T11:57:13;3.30;;;3.00;;
20318;SDS011;10317;47.254;11.314;2022-12-18T12:10:49;4.70;;;3.28;;
20318;SDS011;10317;47.254;11.314;2022-12-18T12:16:21;5.03;;;2.87;;
20318;SDS011;10317;47.254;11.314;2022-12-18T12:19:20;3.27;;;3.00;;
20318;SDS011;10317;47.254;11.314;2022-12-18T12:21:59;4.30;;;3.60;;
20318;SDS011;10317;47.254;11.314;2022-12-18T12:30:22;3.15;;;2.40;;
20318;SDS011;10317;47.254;11.314;2022-12-18T12:36:07;3.83;;;3.28;;
20318;SDS011;10317;47.254;11.314;2022-12-18T12:38:49;3.27;;;2.97;;
20318;SDS011;10317;47.254;11.314;2022-12-18T12:41:21;4.20;;;2.97;;
20318;SDS011;10317;47.254;11.314;2022-12-18T12:44:09;3.73;;;2.97;;
20318;SDS011;10317;47.254;11.314;2022-12-18T12:46:47;5.30;;;3.27;;
20318;SDS011;10317;47.254;11.314;2022-12-18T12:49:15;4.10;;;2.95;;
20318;SDS011;10317;47.254;11.314;2022-12-18T12:51:44;4.07;;;3.50;;
20318;SDS011;10317;47.254;11.314;2022-12-18T12:54:19;3.67;;;3.30;;
20318;SDS011;10317;47.254;11.314;2022-12-18T12:59:51;3.40;;;3.10;;
20318;SDS011;10317;47.254;11.314;2022-12-18T13:05:14;4.93;;;3.07;;
20318;SDS011;10317;47.254;11.314;2022-12-18T13:08:05;4.50;;;2.92;;
20318;SDS011;10317;47.254;11.314;2022-12-18T13:10:37;3.83;;;3.00;;
20318;SDS011;10317;47.254;11.314;2022-12-18T13:13:06;5.60;;;3.47;;
20318;SDS011;10317;47.254;11.314;2022-12-18T13:18:05;4.13;;;3.23;;
20318;SDS011;10317;47.254;11.314;2022-12-18T13:20:38;3.13;;;2.83;;
20318;SDS011;10317;47.254;11.314;2022-12-18T13:26:28;5.47;;;3.13;;
20318;SDS011;10317;47.254;11.314;2022-12-18T13:34:39;4.53;;;3.13;;
20318;SDS011;10317;47.254;11.314;2022-12-18T13:40:20;3.10;;;2.90;;
20318;SDS011;10317;47.254;11.314;2022-12-18T13:45:45;3.77;;;3.23;;
20318;SDS011;10317;47.254;11.314;2022-12-18T13:48:34;5.38;;;3.42;;
20318;SDS011;10317;47.254;11.314;2022-12-18T13:51:04;5.03;;;3.40;;
20318;SDS011;10317;47.254;11.314;2022-12-18T13:53:44;3.90;;;2.93;;
20318;SDS011;10317;47.254;11.314;2022-12-18T13:56:30;4.23;;;3.07;;
20318;SDS011;10317;47.254;11.314;2022-12-18T14:01:48;3.53;;;3.00;;
20318;SDS011;10317;47.254;11.314;2022-12-18T14:04:29;3.67;;;2.80;;
20318;SDS011;10317;47.254;11.314;2022-12-18T14:07:06;3.83;;;3.30;;
20318;SDS011;10317;47.254;11.314;2022-12-18T14:09:40;5.77;;;3.33;;
20318;SDS011;10317;47.254;11.314;2022-12-18T14:12:25;3.83;;;3.30;;
20318;SDS011;10317;47.254;11.314;2022-12-18T14:15:33;7.60;;;4.40;;
20318;SDS011;10317;47.254;11.314;2022-12-18T14:20:48;5.80;;;3.60;;
20318;SDS011;10317;47.254;11.314;2022-12-18T14:23:33;4.60;;;3.63;;
20318;SDS011;10317;47.254;11.314;2022-12-18T14:26:01;5.45;;;3.90;;
20318;SDS011;10317;47.254;11.314;2022-12-18T14:28:28;3.70;;;3.40;;
20318;SDS011;10317;47.254;11.314;2022-12-18T14:30:55;4.33;;;3.63;;
20318;SDS011;10317;47.254;11.314;2022-12-18T14:33:25;6.97;;;4.23;;
20318;SDS011;10317;47.254;11.314;2022-12-18T14:36:02;5.93;;;3.80;;
20318;SDS011;10317;47.254;11.314;2022-12-18T14:41:06;6.30;;;3.90;;
20318;SDS011;10317;47.254;11.314;2022-12-18T14:43:37;4.03;;;3.63;;
20318;SDS011;10317;47.254;11.314;2022-12-18T14:46:04;5.23;;;3.77;;
20318;SDS011;10317;47.254;11.314;2022-12-18T14:48:50;5.03;;;3.37;;
20318;SDS011;10317;47.254;11.314;2022-12-18T14:51:20;6.18;;;4.20;;
20318;SDS011;10317;47.254;11.314;2022-12-18T14:53:49;5.47;;;4.20;;
20318;SDS011;10317;47.254;11.314;2022-12-18T14:56:21;5.03;;;4.10;;
20318;SDS011;10317;47.254;11.314;2022-12-18T14:58:56;5.00;;;3.80;;
20318;SDS011;10317;47.254;11.314;2022-12-18T15:03:55;6.38;;;3.97;;
20318;SDS011;10317;47.254;11.314;2022-12-18T15:07:01;5.53;;;3.60;;
20318;SDS011;10317;47.254;11.314;2022-12-18T15:09:27;5.60;;;3.97;;
20318;SDS011;10317;47.254;11.314;2022-12-18T15:11:56;4.40;;;3.70;;
20318;SDS011;10317;47.254;11.314;2022-12-18T15:16:56;5.63;;;4.00;;
20318;SDS011;10317;47.254;11.314;2022-12-18T15:19:28;4.40;;;3.73;;
20318;SDS011;10317;47.254;11.314;2022-12-18T15:22:21;7.33;;;4.10;;
20318;SDS011;10317;47.254;11.314;2022-12-18T15:24:50;5.40;;;3.73;;
20318;SDS011;10317;47.254;11.314;2022-12-18T15:27:50;5.50;;;4.00;;
20318;SDS011;10317;47.254;11.314;2022-12-18T15:32:45;6.33;;;4.07;;
20318;SDS011;10317;47.254;11.314;2022-12-18T15:37:45;6.33;;;4.50;;
20318;SDS011;10317;47.254;11.314;2022-12-18T15:40:12;5.20;;;4.20;;
20318;SDS011;10317;47.254;11.314;2022-12-18T15:42:40;5.43;;;3.90;;
20318;SDS011;10317;47.254;11.314;2022-12-18T15:45:25;6.77;;;4.50;;
20318;SDS011;10317;47.254;11.314;2022-12-18T15:47:50;8.83;;;4.93;;
20318;SDS011;10317;47.254;11.314;2022-12-18T15:50:16;8.80;;;5.80;;
20318;SDS011;10317;47.254;11.314;2022-12-18T15:52:43;10.00;;;5.67;;
20318;SDS011;10317;47.254;11.314;2022-12-18T15:55:15;6.97;;;5.67;;
20318;SDS011;10317;47.254;11.314;2022-12-18T15:58:19;7.23;;;5.33;;
20318;SDS011;10317;47.254;11.314;2022-12-18T16:00:45;8.30;;;5.57;;
20318;SDS011;10317;47.254;11.314;2022-12-18T16:03:11;7.90;;;5.47;;
20318;SDS011;10317;47.254;11.314;2022-12-18T16:05:37;7.23;;;5.60;;
20318;SDS011;10317;47.254;11.314;2022-12-18T16:08:02;9.47;;;5.93;;
20318;SDS011;10317;47.254;11.314;2022-12-18T16:10:28;8.90;;;5.83;;
20318;SDS011;10317;47.254;11.314;2022-12-18T16:12:54;13.10;;;5.77;;
20318;SDS011;10317;47.254;11.314;2022-12-18T16:15:20;9.03;;;5.50;;
20318;SDS011;10317;47.254;11.314;2022-12-18T16:17:46;8.93;;;5.97;;
20318;SDS011;10317;47.254;11.314;2022-12-18T16:20:16;10.13;;;5.37;;
20318;SDS011;10317;47.254;11.314;2022-12-18T16:22:45;9.60;;;6.07;;
20318;SDS011;10317;47.254;11.314;2022-12-18T16:25:25;10.13;;;6.00;;
20318;SDS011;10317;47.254;11.314;2022-12-18T16:27:52;10.17;;;6.30;;